Darstellungsparameter: Aktuell verwendete Einstellungen:
Skalierung der Graphiken ... ?
xyx+y,   Skalierungsfaktor:      Skalierung: Modus: x, Faktor: 1
Darstellungszeitraum ... ?
Vom - - bis: - -   Zeitraum: 25.12.2013 - 27.12.2013
Min/Max/Avg-Anzeige ... ?
Zeige MMA aktuell
Zeige MMA Monat
Zeige MMA alles
Zeige --A aktuell
Zeige --A Monat
Zeige --A alles
Keine MMA-Anzeige
MMA:
Keine MMA-Graphiken
MMA-Basis: 25.12.2013 - 27.12.2013
Quicknavigation für Darstellung... ?
Tage:      1T, 2T, 3T, 5T -1T -2T -3T -5T +1T +2T +3T +5T
Wochen: 1W, 2W, 3W -1W -2W -3W +1W +2W +3W
Monate: 1M, 3M, 6M -1M -3M -6M +1M +3M +6M
Jahre:    1J, 3J, 5J, 10J -1J -3J -5J -10J +1J +3J +5J +10J
Nutze für die Darstellung ... ?
Originaldaten oder Mittelwerte auf ...
Stundenbasis Tagesbasis Wochenbasis
Monatsbasis Jahresbasis      Datenbasis: Original-Daten
Darstellen als:
Statistik (Auto) Statistik J:M      Darstellung:
Zur Graphik,    zurück zur Übersicht aller Sensoren.
 
Tabellarische Datenbersicht: ?
 
Sensor: Nr:Datum:Temp:Abs-Feuchte:Windchill:Wind:
Aussen-T/F 1 25-12-2013 00:00:00 10.8 C 8.5 g/m*3 9.93 C 8.1 km/h
2 25-12-2013 00:05:00 11 C 8.61 g/m*3 10.16 C 8.1 km/h
3 25-12-2013 00:10:00 11 C 8.61 g/m*3 9.4 C 12.9 km/h
4 25-12-2013 00:15:00 11 C 8.61 g/m*3 9.4 C 12.9 km/h
5 25-12-2013 00:20:00 11 C 8.51 g/m*3 10.52 C 6.4 km/h
6 25-12-2013 00:25:00 10.9 C 8.55 g/m*3 10.9 C 4.8 km/h
7 25-12-2013 00:30:00 10.8 C 8.5 g/m*3 10.8 C 4.8 km/h
8 25-12-2013 00:35:00 10.8 C 8.5 g/m*3 10.29 C 6.4 km/h
9 25-12-2013 00:40:00 10.7 C 8.55 g/m*3 9.81 C 8.1 km/h
10 25-12-2013 00:45:00 10.7 C 8.45 g/m*3 10.18 C 6.4 km/h
11 25-12-2013 00:50:00 10.7 C 8.45 g/m*3 9.52 C 9.7 km/h
12 25-12-2013 00:55:00 10.9 C 8.55 g/m*3 10.04 C 8.1 km/h
13 25-12-2013 01:00:00 10.9 C 8.55 g/m*3 10.41 C 6.4 km/h
14 25-12-2013 01:05:00 10.8 C 8.5 g/m*3 10.29 C 6.4 km/h
15 25-12-2013 01:10:00 10.8 C 8.6 g/m*3 10.29 C 6.4 km/h
16 25-12-2013 01:15:00 10.8 C 8.7 g/m*3 10.29 C 6.4 km/h
17 25-12-2013 01:20:00 10.7 C 8.64 g/m*3 10.7 C 4.8 km/h
18 25-12-2013 01:25:00 10.6 C 8.59 g/m*3 10.6 C 4.8 km/h
19 25-12-2013 01:30:00 10.6 C 8.59 g/m*3 9.4 C 9.7 km/h
20 25-12-2013 01:35:00 10.6 C 8.69 g/m*3 10.6 C 3.2 km/h
21 25-12-2013 01:40:00 10.6 C 8.69 g/m*3 10.6 C 4.8 km/h
22 25-12-2013 01:45:00 10.4 C 8.58 g/m*3 10.4 C 3.2 km/h
23 25-12-2013 01:50:00 10.4 C 8.58 g/m*3 8.9 C 11.3 km/h
24 25-12-2013 01:55:00 10.5 C 8.53 g/m*3 9.57 C 8.1 km/h
25 25-12-2013 02:00:00 10.6 C 8.59 g/m*3 10.06 C 6.4 km/h
Sensor: Nr:Datum:Temp:Abs-Feuchte:Windchill:Wind:
Aussen-T/F 26 25-12-2013 02:05:00 10.7 C 8.55 g/m*3 9.26 C 11.3 km/h
27 25-12-2013 02:10:00 10.8 C 8.6 g/m*3 9.93 C 8.1 km/h
28 25-12-2013 02:15:00 10.8 C 8.6 g/m*3 10.8 C 4.8 km/h
29 25-12-2013 02:20:00 10.7 C 8.55 g/m*3 9.81 C 8.1 km/h
30 25-12-2013 02:25:00 10.8 C 8.6 g/m*3 9.16 C 12.9 km/h
31 25-12-2013 02:30:00 10.7 C 8.55 g/m*3 9.81 C 8.1 km/h
32 25-12-2013 02:35:00 10.7 C 8.55 g/m*3 10.18 C 6.4 km/h
33 25-12-2013 02:40:00 10.6 C 8.49 g/m*3 10.06 C 6.4 km/h
34 25-12-2013 02:45:00 10.5 C 8.53 g/m*3 9.95 C 6.4 km/h
35 25-12-2013 02:50:00 10.6 C 8.49 g/m*3 10.06 C 6.4 km/h
36 25-12-2013 02:55:00 10.6 C 8.59 g/m*3 10.6 C 4.8 km/h
37 25-12-2013 03:00:00 10.7 C 8.55 g/m*3 9.52 C 9.7 km/h
38 25-12-2013 03:05:00 10.8 C 8.6 g/m*3 10.8 C 3.2 km/h
39 25-12-2013 03:10:00 10.8 C 8.6 g/m*3 10.8 C 4.8 km/h
40 25-12-2013 03:15:00 10.8 C 8.7 g/m*3 10.8 C 4.8 km/h
41 25-12-2013 03:20:00 10.8 C 8.7 g/m*3 10.8 C 3.2 km/h
42 25-12-2013 03:25:00 10.8 C 8.7 g/m*3 10.8 C 3.2 km/h
43 25-12-2013 03:30:00 10.7 C 8.74 g/m*3 9.52 C 9.7 km/h
44 25-12-2013 03:35:00 10.7 C 8.64 g/m*3 10.7 C 3.2 km/h
45 25-12-2013 03:40:00 10.7 C 8.74 g/m*3 9.81 C 8.1 km/h
46 25-12-2013 03:45:00 10.9 C 8.75 g/m*3 9.51 C 11.3 km/h
47 25-12-2013 03:50:00 11 C 8.81 g/m*3 9.21 C 14.5 km/h
48 25-12-2013 03:55:00 10.9 C 8.85 g/m*3 10.9 C 4.8 km/h
49 25-12-2013 04:00:00 10.8 C 8.8 g/m*3 10.29 C 6.4 km/h
50 25-12-2013 04:05:00 10.7 C 8.74 g/m*3 9.81 C 8.1 km/h
Sensor: Nr:Datum:Temp:Abs-Feuchte:Windchill:Wind:
Aussen-T/F 51 25-12-2013 04:10:00 10.8 C 8.8 g/m*3 10.29 C 6.4 km/h
52 25-12-2013 04:15:00 10.8 C 8.9 g/m*3 10.8 C 4.8 km/h
53 25-12-2013 04:20:00 10.8 C 8.8 g/m*3 9.93 C 8.1 km/h
54 25-12-2013 04:25:00 10.8 C 8.9 g/m*3 10.8 C 3.2 km/h
55 25-12-2013 04:30:00 10.8 C 8.8 g/m*3 9.93 C 8.1 km/h
56 25-12-2013 04:35:00 10.9 C 8.85 g/m*3 10.04 C 8.1 km/h
57 25-12-2013 04:40:00 10.8 C 8.9 g/m*3 10.29 C 6.4 km/h
58 25-12-2013 04:45:00 10.8 C 8.9 g/m*3 10.8 C 3.2 km/h
59 25-12-2013 04:50:00 10.7 C 8.94 g/m*3 10.7 C 4.8 km/h
60 25-12-2013 04:55:00 10.6 C 8.88 g/m*3 9.4 C 9.7 km/h
61 25-12-2013 05:00:00 10.6 C 8.98 g/m*3 9.69 C 8.1 km/h
62 25-12-2013 05:05:00 10.5 C 8.92 g/m*3 9.57 C 8.1 km/h
63 25-12-2013 05:10:00 10.6 C 8.88 g/m*3 10.06 C 6.4 km/h
64 25-12-2013 05:15:00 10.6 C 8.98 g/m*3 10.6 C 3.2 km/h
65 25-12-2013 05:20:00 10.5 C 8.92 g/m*3 9.95 C 6.4 km/h
66 25-12-2013 05:25:00 10.5 C 8.83 g/m*3 8.8 C 12.9 km/h
67 25-12-2013 05:30:00 10.6 C 8.88 g/m*3 8.92 C 12.9 km/h
68 25-12-2013 05:35:00 10.6 C 8.88 g/m*3 9.14 C 11.3 km/h
69 25-12-2013 05:40:00 10.6 C 8.88 g/m*3 9.4 C 9.7 km/h
70 25-12-2013 05:45:00 10.5 C 8.73 g/m*3 9.02 C 11.3 km/h
71 25-12-2013 05:50:00 10.4 C 8.77 g/m*3 10.4 C 4.8 km/h
72 25-12-2013 05:55:00 10.4 C 8.67 g/m*3 9.46 C 8.1 km/h
73 25-12-2013 06:00:00 10.3 C 8.62 g/m*3 10.3 C 3.2 km/h
74 25-12-2013 06:05:00 10.2 C 8.66 g/m*3 9.22 C 8.1 km/h
75 25-12-2013 06:10:00 10.1 C 8.61 g/m*3 8.54 C 11.3 km/h
Sensor: Nr:Datum:Temp:Abs-Feuchte:Windchill:Wind:
Aussen-T/F 76 25-12-2013 06:15:00 10.1 C 8.61 g/m*3 8.54 C 11.3 km/h
77 25-12-2013 06:20:00 10.1 C 8.61 g/m*3 9.1 C 8.1 km/h
78 25-12-2013 06:25:00 10.1 C 8.51 g/m*3 8.31 C 12.9 km/h
79 25-12-2013 06:30:00 10.1 C 8.61 g/m*3 10.1 C 4.8 km/h
80 25-12-2013 06:35:00 10 C 8.55 g/m*3 10 C 4.8 km/h
81 25-12-2013 06:40:00 9.9 C 8.5 g/m*3 8.87 C 8.1 km/h
82 25-12-2013 06:45:00 9.9 C 8.59 g/m*3 9.9 C 4.8 km/h
83 25-12-2013 06:50:00 9.8 C 8.54 g/m*3 9.8 C 1.6 km/h
84 25-12-2013 06:55:00 9.7 C 8.57 g/m*3 9.7 C 1.6 km/h
85 25-12-2013 07:00:00 9.6 C 8.52 g/m*3 9.6 C 1.6 km/h
86 25-12-2013 07:05:00 9.5 C 8.56 g/m*3 9.5 C 3.2 km/h
87 25-12-2013 07:10:00 9.6 C 8.61 g/m*3 9.6 C 1.6 km/h
88 25-12-2013 07:15:00 9.6 C 8.61 g/m*3 9.6 C 4.8 km/h
89 25-12-2013 07:20:00 9.7 C 8.57 g/m*3 7.61 C 14.5 km/h
90 25-12-2013 07:25:00 9.8 C 8.63 g/m*3 7.94 C 12.9 km/h
91 25-12-2013 07:30:00 9.8 C 8.54 g/m*3 7.19 C 19.3 km/h
92 25-12-2013 07:35:00 9.6 C 8.15 g/m*3 6.94 C 19.3 km/h
93 25-12-2013 07:40:00 9.3 C 7.91 g/m*3 7.85 C 9.7 km/h
94 25-12-2013 07:45:00 9.1 C 7.81 g/m*3 6.87 C 14.5 km/h
95 25-12-2013 07:50:00 8.8 C 7.75 g/m*3 6.97 C 11.3 km/h
96 25-12-2013 07:55:00 8.7 C 7.7 g/m*3 7.13 C 9.7 km/h
97 25-12-2013 08:00:00 8.6 C 7.65 g/m*3 7.01 C 9.7 km/h
98 25-12-2013 08:05:00 8.6 C 7.56 g/m*3 7.34 C 8.1 km/h
99 25-12-2013 08:10:00 8.6 C 7.73 g/m*3 8.6 C 4.8 km/h
100 25-12-2013 08:15:00 8.4 C 7.55 g/m*3 6.49 C 11.3 km/h
Sensor: Nr:Datum:Temp:Abs-Feuchte:Windchill:Wind:
Aussen-T/F 101 25-12-2013 08:20:00 8.4 C 7.63 g/m*3 7.52 C 6.4 km/h
102 25-12-2013 08:25:00 8.3 C 7.59 g/m*3 6.66 C 9.7 km/h
103 25-12-2013 08:30:00 8.3 C 7.59 g/m*3 7.41 C 6.4 km/h
104 25-12-2013 08:35:00 8.2 C 7.54 g/m*3 8.2 C 4.8 km/h
105 25-12-2013 08:40:00 8.1 C 7.49 g/m*3 8.1 C 4.8 km/h
106 25-12-2013 08:45:00 8.1 C 7.49 g/m*3 8.1 C 3.2 km/h
107 25-12-2013 08:50:00 7.9 C 7.47 g/m*3 7.9 C 4.8 km/h
108 25-12-2013 08:55:00 7.8 C 7.51 g/m*3 7.8 C 0 km/h
109 25-12-2013 09:00:00 7.7 C 7.54 g/m*3 7.7 C 3.2 km/h
110 25-12-2013 09:05:00 7.7 C 7.54 g/m*3 7.7 C 3.2 km/h
111 25-12-2013 09:10:00 7.6 C 7.49 g/m*3 7.6 C 4.8 km/h
112 25-12-2013 09:15:00 7.5 C 7.44 g/m*3 7.5 C 3.2 km/h
113 25-12-2013 09:20:00 7.4 C 7.4 g/m*3 7.4 C 3.2 km/h
114 25-12-2013 09:25:00 7.4 C 7.4 g/m*3 7.4 C 0 km/h
115 25-12-2013 11:05:00 8.2 C 8.37 g/m*3 8.2 C 0 km/h
116 25-12-2013 11:10:00 8.1 C 7.99 g/m*3 8.1 C 0 km/h
117 25-12-2013 11:15:00 8.1 C 7.99 g/m*3 8.1 C 0 km/h
118 25-12-2013 11:20:00 8.2 C 8.04 g/m*3 8.2 C 0 km/h
119 25-12-2013 11:25:00 8.2 C 8.04 g/m*3 8.2 C 0 km/h
120 25-12-2013 11:30:00 8.2 C 8.04 g/m*3 8.2 C 0 km/h
121 25-12-2013 16:00:00 7.8 C 7.83 g/m*3 7.8 C 1.6 km/h
122 25-12-2013 16:05:00 7.8 C 7.83 g/m*3 7.8 C 0 km/h
123 25-12-2013 16:10:00 7.8 C 7.83 g/m*3 7.8 C 1.6 km/h
124 25-12-2013 16:15:00 7.8 C 7.83 g/m*3 7.8 C 0 km/h
125 25-12-2013 16:20:00 7.8 C 7.83 g/m*3 7.8 C 0 km/h
Sensor: Nr:Datum:Temp:Abs-Feuchte:Windchill:Wind:
Aussen-T/F 126 25-12-2013 16:25:00 7.8 C 7.83 g/m*3 7.8 C 0 km/h
127 25-12-2013 16:30:00 7.8 C 7.83 g/m*3 7.8 C 0 km/h
128 25-12-2013 16:35:00 7.8 C 7.83 g/m*3 7.8 C 0 km/h
129 25-12-2013 16:40:00 7.8 C 7.83 g/m*3 7.8 C 0 km/h
130 25-12-2013 16:45:00 7.7 C 7.78 g/m*3 7.7 C 0 km/h
131 25-12-2013 16:50:00 7.7 C 7.78 g/m*3 7.7 C 0 km/h
132 25-12-2013 16:55:00 7.7 C 7.7 g/m*3 7.7 C 0 km/h
133 25-12-2013 17:00:00 7.7 C 7.7 g/m*3 7.7 C 0 km/h
134 25-12-2013 17:05:00 7.6 C 7.65 g/m*3 7.6 C 0 km/h
135 25-12-2013 17:10:00 7.6 C 7.65 g/m*3 7.6 C 0 km/h
136 25-12-2013 17:15:00 7.6 C 7.65 g/m*3 7.6 C 0 km/h
137 25-12-2013 17:20:00 7.4 C 7.63 g/m*3 7.4 C 1.6 km/h
138 25-12-2013 17:25:00 7.4 C 7.55 g/m*3 7.4 C 1.6 km/h
139 25-12-2013 17:30:00 7.4 C 7.63 g/m*3 7.4 C 1.6 km/h
140 25-12-2013 17:35:00 7.4 C 7.63 g/m*3 7.4 C 1.6 km/h
141 25-12-2013 17:40:00 7.3 C 7.58 g/m*3 7.3 C 0 km/h
142 25-12-2013 17:45:00 7.2 C 7.46 g/m*3 7.2 C 3.2 km/h
143 25-12-2013 17:50:00 7.2 C 7.54 g/m*3 7.2 C 0 km/h
144 25-12-2013 17:55:00 7.1 C 7.41 g/m*3 7.1 C 1.6 km/h
145 25-12-2013 18:00:00 6.9 C 7.31 g/m*3 6.9 C 3.2 km/h
146 25-12-2013 18:05:00 6.8 C 7.27 g/m*3 6.8 C 3.2 km/h
147 25-12-2013 18:10:00 6.7 C 7.29 g/m*3 6.7 C 3.2 km/h
148 25-12-2013 18:15:00 6.6 C 7.17 g/m*3 6.6 C 1.6 km/h
149 25-12-2013 18:20:00 6.4 C 7.08 g/m*3 6.4 C 3.2 km/h
150 25-12-2013 18:25:00 6.3 C 7.03 g/m*3 6.3 C 3.2 km/h
Sensor: Nr:Datum:Temp:Abs-Feuchte:Windchill:Wind:
Aussen-T/F 151 25-12-2013 18:30:00 6.2 C 7.06 g/m*3 6.2 C 1.6 km/h
152 25-12-2013 18:35:00 6.1 C 7.01 g/m*3 6.1 C 3.2 km/h
153 25-12-2013 18:40:00 6.1 C 7.01 g/m*3 6.1 C 1.6 km/h
154 25-12-2013 18:45:00 5.9 C 6.85 g/m*3 5.9 C 3.2 km/h
155 25-12-2013 18:50:00 5.7 C 6.83 g/m*3 5.7 C 1.6 km/h
156 25-12-2013 18:55:00 5.7 C 6.83 g/m*3 5.7 C 3.2 km/h
157 25-12-2013 19:00:00 5.7 C 6.83 g/m*3 5.7 C 4.8 km/h
158 25-12-2013 19:05:00 5.6 C 6.79 g/m*3 5.6 C 0 km/h
159 25-12-2013 19:10:00 5.5 C 6.74 g/m*3 5.5 C 3.2 km/h
160 25-12-2013 19:15:00 5.5 C 6.74 g/m*3 5.5 C 3.2 km/h
161 25-12-2013 19:20:00 5.7 C 6.83 g/m*3 5.7 C 3.2 km/h
162 25-12-2013 19:25:00 5.7 C 6.9 g/m*3 5.7 C 1.6 km/h
163 25-12-2013 19:30:00 5.8 C 6.95 g/m*3 5.8 C 0 km/h
164 25-12-2013 19:35:00 5.9 C 6.99 g/m*3 5.9 C 0 km/h
165 25-12-2013 19:40:00 6.1 C 7.09 g/m*3 6.1 C 0 km/h
166 25-12-2013 19:45:00 6.2 C 7.13 g/m*3 6.2 C 0 km/h
167 25-12-2013 19:50:00 6.2 C 7.13 g/m*3 6.2 C 0 km/h
168 25-12-2013 19:55:00 6.3 C 7.18 g/m*3 6.3 C 1.6 km/h
169 25-12-2013 20:00:00 6.3 C 7.18 g/m*3 6.3 C 0 km/h
170 25-12-2013 20:05:00 6.4 C 7.23 g/m*3 6.4 C 0 km/h
171 25-12-2013 20:10:00 6.4 C 7.23 g/m*3 6.4 C 0 km/h
172 25-12-2013 20:15:00 6.3 C 7.11 g/m*3 6.3 C 1.6 km/h
173 25-12-2013 20:20:00 6.2 C 7.06 g/m*3 6.2 C 0 km/h
174 25-12-2013 20:25:00 6.2 C 7.06 g/m*3 6.2 C 1.6 km/h
175 25-12-2013 20:30:00 6.2 C 7.06 g/m*3 6.2 C 1.6 km/h
Sensor: Nr:Datum:Temp:Abs-Feuchte:Windchill:Wind:
Aussen-T/F 176 25-12-2013 20:35:00 6.2 C 7.06 g/m*3 6.2 C 0 km/h
177 25-12-2013 20:40:00 6.3 C 7.11 g/m*3 6.3 C 0 km/h
178 25-12-2013 20:45:00 6.3 C 7.11 g/m*3 6.3 C 1.6 km/h
179 25-12-2013 20:50:00 6.3 C 7.11 g/m*3 6.3 C 1.6 km/h
180 25-12-2013 20:55:00 6.2 C 7.06 g/m*3 6.2 C 1.6 km/h
181 25-12-2013 21:00:00 6.2 C 7.06 g/m*3 6.2 C 3.2 km/h
182 25-12-2013 21:05:00 6 C 6.9 g/m*3 6 C 3.2 km/h
183 25-12-2013 21:10:00 5.9 C 6.85 g/m*3 5.9 C 3.2 km/h
184 25-12-2013 21:15:00 5.8 C 6.88 g/m*3 5.8 C 1.6 km/h
185 25-12-2013 21:20:00 5.7 C 6.76 g/m*3 5.7 C 0 km/h
186 25-12-2013 21:25:00 5.5 C 6.67 g/m*3 5.5 C 3.2 km/h
187 25-12-2013 21:30:00 5.4 C 6.7 g/m*3 5.4 C 1.6 km/h
188 25-12-2013 21:35:00 5.4 C 6.63 g/m*3 5.4 C 1.6 km/h
189 25-12-2013 21:40:00 5.4 C 6.7 g/m*3 5.4 C 1.6 km/h
190 25-12-2013 21:45:00 5.4 C 6.7 g/m*3 5.4 C 0 km/h
191 25-12-2013 21:50:00 5.5 C 6.74 g/m*3 5.5 C 1.6 km/h
192 25-12-2013 21:55:00 5.6 C 6.79 g/m*3 5.6 C 0 km/h
193 25-12-2013 22:00:00 5.7 C 6.83 g/m*3 5.7 C 1.6 km/h
194 25-12-2013 22:05:00 5.8 C 6.88 g/m*3 5.8 C 1.6 km/h
195 25-12-2013 22:10:00 5.9 C 6.92 g/m*3 5.9 C 1.6 km/h
196 25-12-2013 22:15:00 5.9 C 6.92 g/m*3 5.9 C 1.6 km/h
197 25-12-2013 22:20:00 6 C 7.04 g/m*3 6 C 0 km/h
198 25-12-2013 22:25:00 6.1 C 7.09 g/m*3 6.1 C 0 km/h
199 25-12-2013 22:30:00 6.2 C 7.06 g/m*3 6.2 C 0 km/h
200 25-12-2013 22:35:00 6.2 C 7.06 g/m*3 6.2 C 0 km/h
Sensor: Nr:Datum:Temp:Abs-Feuchte:Windchill:Wind:
Aussen-T/F 201 25-12-2013 22:40:00 6.2 C 7.06 g/m*3 6.2 C 0 km/h
202 25-12-2013 22:45:00 6.2 C 7.06 g/m*3 6.2 C 3.2 km/h
203 25-12-2013 22:50:00 6.3 C 7.11 g/m*3 6.3 C 3.2 km/h
204 25-12-2013 22:55:00 6.3 C 7.11 g/m*3 4.64 C 8.1 km/h
205 25-12-2013 23:00:00 6.3 C 7.11 g/m*3 6.3 C 1.6 km/h
206 25-12-2013 23:05:00 6.3 C 7.11 g/m*3 6.3 C 0 km/h
207 25-12-2013 23:10:00 6.3 C 7.11 g/m*3 6.3 C 1.6 km/h
208 25-12-2013 23:15:00 6.4 C 7.15 g/m*3 5.21 C 6.4 km/h
209 25-12-2013 23:20:00 6.4 C 7.08 g/m*3 6.4 C 1.6 km/h
210 25-12-2013 23:25:00 6.4 C 7.08 g/m*3 6.4 C 4.8 km/h
211 25-12-2013 23:30:00 6.4 C 7.08 g/m*3 6.4 C 0 km/h
212 25-12-2013 23:35:00 6.4 C 7.08 g/m*3 6.4 C 0 km/h
213 25-12-2013 23:40:00 6.4 C 7.08 g/m*3 6.4 C 0 km/h
214 25-12-2013 23:45:00 6.4 C 7.08 g/m*3 6.4 C 0 km/h
215 25-12-2013 23:50:00 6.4 C 7.08 g/m*3 6.4 C 0 km/h
216 25-12-2013 23:55:00 6.4 C 7.08 g/m*3 6.4 C 0 km/h
217 26-12-2013 00:00:00 6.4 C 7.08 g/m*3 6.4 C 1.6 km/h
218 26-12-2013 00:05:00 6.3 C 7.03 g/m*3 6.3 C 1.6 km/h
219 26-12-2013 00:10:00 6.2 C 6.99 g/m*3 6.2 C 0 km/h
220 26-12-2013 00:15:00 6.1 C 6.87 g/m*3 6.1 C 3.2 km/h
221 26-12-2013 00:20:00 5.9 C 6.85 g/m*3 5.9 C 0 km/h
222 26-12-2013 00:25:00 5.8 C 6.81 g/m*3 5.8 C 1.6 km/h
223 26-12-2013 00:30:00 5.7 C 6.76 g/m*3 5.7 C 3.2 km/h
224 26-12-2013 00:35:00 5.7 C 6.76 g/m*3 5.7 C 3.2 km/h
225 26-12-2013 00:40:00 5.6 C 6.72 g/m*3 5.6 C 3.2 km/h
Sensor: Nr:Datum:Temp:Abs-Feuchte:Windchill:Wind:
Aussen-T/F 226 26-12-2013 00:45:00 5.4 C 6.63 g/m*3 5.4 C 1.6 km/h
227 26-12-2013 00:50:00 5.3 C 6.58 g/m*3 5.3 C 3.2 km/h
228 26-12-2013 00:55:00 5.3 C 6.58 g/m*3 5.3 C 3.2 km/h
229 26-12-2013 01:00:00 5.3 C 6.58 g/m*3 5.3 C 1.6 km/h
230 26-12-2013 01:05:00 5.2 C 6.54 g/m*3 5.2 C 0 km/h
231 26-12-2013 01:10:00 5.2 C 6.61 g/m*3 5.2 C 0 km/h
232 26-12-2013 01:15:00 5.2 C 6.61 g/m*3 5.2 C 0 km/h
233 26-12-2013 01:20:00 5.3 C 6.65 g/m*3 5.3 C 0 km/h
234 26-12-2013 01:25:00 5.4 C 6.7 g/m*3 5.4 C 1.6 km/h
235 26-12-2013 01:30:00 5.4 C 6.7 g/m*3 5.4 C 0 km/h
236 26-12-2013 01:35:00 5.6 C 6.79 g/m*3 5.6 C 0 km/h
237 26-12-2013 01:40:00 5.6 C 6.79 g/m*3 5.6 C 0 km/h
238 26-12-2013 01:45:00 5.6 C 6.79 g/m*3 5.6 C 0 km/h
239 26-12-2013 01:50:00 5.6 C 6.79 g/m*3 5.6 C 0 km/h
240 26-12-2013 01:55:00 5.6 C 6.79 g/m*3 5.6 C 0 km/h
241 26-12-2013 02:00:00 5.6 C 6.79 g/m*3 5.6 C 0 km/h
242 26-12-2013 02:05:00 5.6 C 6.79 g/m*3 5.6 C 0 km/h
243 26-12-2013 02:10:00 5.4 C 6.7 g/m*3 5.4 C 0 km/h
244 26-12-2013 02:15:00 5.4 C 6.7 g/m*3 5.4 C 0 km/h
245 26-12-2013 02:20:00 5.3 C 6.65 g/m*3 5.3 C 0 km/h
246 26-12-2013 02:25:00 5.2 C 6.61 g/m*3 5.2 C 0 km/h
247 26-12-2013 02:30:00 5.2 C 6.61 g/m*3 5.2 C 0 km/h
248 26-12-2013 02:35:00 5.2 C 6.61 g/m*3 5.2 C 0 km/h
249 26-12-2013 02:40:00 5.1 C 6.57 g/m*3 5.1 C 0 km/h
250 26-12-2013 02:45:00 5.2 C 6.61 g/m*3 5.2 C 0 km/h
Sensor: Nr:Datum:Temp:Abs-Feuchte:Windchill:Wind:
Aussen-T/F 251 26-12-2013 02:50:00 5.2 C 6.61 g/m*3 5.2 C 1.6 km/h
252 26-12-2013 02:55:00 5.3 C 6.65 g/m*3 5.3 C 0 km/h
253 26-12-2013 03:00:00 5.3 C 6.65 g/m*3 5.3 C 0 km/h
254 26-12-2013 03:05:00 5.3 C 6.65 g/m*3 5.3 C 0 km/h
255 26-12-2013 03:10:00 5.3 C 6.65 g/m*3 5.3 C 1.6 km/h
256 26-12-2013 03:15:00 5.4 C 6.7 g/m*3 5.4 C 0 km/h
257 26-12-2013 03:20:00 5.4 C 6.7 g/m*3 5.4 C 0 km/h
258 26-12-2013 03:25:00 5.5 C 6.74 g/m*3 5.5 C 0 km/h
259 26-12-2013 03:30:00 5.6 C 6.79 g/m*3 5.6 C 0 km/h
260 26-12-2013 03:35:00 5.6 C 6.79 g/m*3 5.6 C 0 km/h
261 26-12-2013 03:40:00 5.6 C 6.79 g/m*3 5.6 C 0 km/h
262 26-12-2013 03:45:00 5.7 C 6.83 g/m*3 5.7 C 0 km/h
263 26-12-2013 03:50:00 5.7 C 6.9 g/m*3 5.7 C 0 km/h
264 26-12-2013 03:55:00 5.7 C 6.9 g/m*3 5.7 C 0 km/h
265 26-12-2013 04:00:00 5.7 C 6.83 g/m*3 5.7 C 0 km/h
266 26-12-2013 04:05:00 5.8 C 6.88 g/m*3 5.8 C 0 km/h
267 26-12-2013 04:10:00 5.8 C 6.88 g/m*3 5.8 C 0 km/h
268 26-12-2013 04:15:00 5.8 C 6.88 g/m*3 5.8 C 0 km/h
269 26-12-2013 04:20:00 5.8 C 6.88 g/m*3 5.8 C 0 km/h
270 26-12-2013 04:25:00 5.8 C 6.88 g/m*3 5.8 C 0 km/h
271 26-12-2013 04:30:00 5.8 C 6.88 g/m*3 5.8 C 0 km/h
272 26-12-2013 04:35:00 5.8 C 6.88 g/m*3 5.8 C 0 km/h
273 26-12-2013 04:40:00 5.8 C 6.88 g/m*3 5.8 C 0 km/h
274 26-12-2013 04:45:00 5.8 C 6.88 g/m*3 5.8 C 0 km/h
275 26-12-2013 04:50:00 5.8 C 6.88 g/m*3 5.8 C 0 km/h
Sensor: Nr:Datum:Temp:Abs-Feuchte:Windchill:Wind:
Aussen-T/F 276 26-12-2013 04:55:00 5.8 C 6.88 g/m*3 5.8 C 0 km/h
277 26-12-2013 05:00:00 5.8 C 6.88 g/m*3 5.8 C 0 km/h
278 26-12-2013 05:05:00 5.8 C 6.88 g/m*3 5.8 C 0 km/h
279 26-12-2013 05:10:00 5.8 C 6.88 g/m*3 5.8 C 0 km/h
280 26-12-2013 05:15:00 5.8 C 6.88 g/m*3 5.8 C 0 km/h
281 26-12-2013 05:20:00 5.8 C 6.88 g/m*3 5.8 C 0 km/h
282 26-12-2013 05:25:00 5.8 C 6.88 g/m*3 5.8 C 0 km/h
283 26-12-2013 05:30:00 5.8 C 6.88 g/m*3 5.8 C 0 km/h
284 26-12-2013 05:35:00 5.7 C 6.83 g/m*3 5.7 C 0 km/h
285 26-12-2013 05:40:00 5.7 C 6.83 g/m*3 5.7 C 0 km/h
286 26-12-2013 05:45:00 5.7 C 6.83 g/m*3 5.7 C 0 km/h
287 26-12-2013 05:50:00 5.6 C 6.79 g/m*3 5.6 C 0 km/h
288 26-12-2013 05:55:00 5.6 C 6.79 g/m*3 5.6 C 0 km/h
289 26-12-2013 06:00:00 5.6 C 6.79 g/m*3 5.6 C 0 km/h
290 26-12-2013 06:05:00 5.6 C 6.79 g/m*3 5.6 C 0 km/h
291 26-12-2013 06:10:00 5.6 C 6.79 g/m*3 5.6 C 0 km/h
292 26-12-2013 06:15:00 5.6 C 6.79 g/m*3 5.6 C 0 km/h
293 26-12-2013 06:20:00 5.6 C 6.79 g/m*3 5.6 C 0 km/h
294 26-12-2013 06:25:00 5.7 C 6.83 g/m*3 5.7 C 0 km/h
295 26-12-2013 06:30:00 5.7 C 6.83 g/m*3 5.7 C 0 km/h
296 26-12-2013 06:35:00 5.7 C 6.83 g/m*3 5.7 C 0 km/h
297 26-12-2013 06:40:00 5.7 C 6.83 g/m*3 5.7 C 0 km/h
298 26-12-2013 06:45:00 5.7 C 6.83 g/m*3 5.7 C 0 km/h
299 26-12-2013 06:50:00 5.7 C 6.83 g/m*3 5.7 C 0 km/h
300 26-12-2013 06:55:00 5.7 C 6.83 g/m*3 5.7 C 0 km/h
Sensor: Nr:Datum:Temp:Abs-Feuchte:Windchill:Wind:
Aussen-T/F 301 26-12-2013 07:00:00 5.7 C 6.83 g/m*3 5.7 C 0 km/h
302 26-12-2013 07:05:00 5.7 C 6.83 g/m*3 5.7 C 0 km/h
303 26-12-2013 07:10:00 5.7 C 6.83 g/m*3 5.7 C 0 km/h
304 26-12-2013 07:15:00 5.7 C 6.83 g/m*3 5.7 C 0 km/h
305 26-12-2013 07:20:00 5.7 C 6.83 g/m*3 5.7 C 0 km/h
306 26-12-2013 07:25:00 5.7 C 6.83 g/m*3 5.7 C 1.6 km/h
307 26-12-2013 07:30:00 5.7 C 6.83 g/m*3 5.7 C 0 km/h
308 26-12-2013 07:35:00 5.7 C 6.83 g/m*3 5.7 C 1.6 km/h
309 26-12-2013 07:40:00 5.7 C 6.83 g/m*3 5.7 C 0 km/h
310 26-12-2013 07:45:00 5.7 C 6.83 g/m*3 5.7 C 0 km/h
311 26-12-2013 07:50:00 5.7 C 6.83 g/m*3 5.7 C 1.6 km/h
312 26-12-2013 07:55:00 5.7 C 6.83 g/m*3 5.7 C 0 km/h
313 26-12-2013 08:00:00 5.7 C 6.83 g/m*3 5.7 C 0 km/h
314 26-12-2013 08:05:00 5.7 C 6.83 g/m*3 5.7 C 0 km/h
315 26-12-2013 08:10:00 5.7 C 6.83 g/m*3 5.7 C 0 km/h
316 26-12-2013 08:15:00 5.7 C 6.83 g/m*3 5.7 C 0 km/h
317 26-12-2013 08:20:00 5.8 C 6.88 g/m*3 5.8 C 0 km/h
318 26-12-2013 08:25:00 5.8 C 6.95 g/m*3 5.8 C 0 km/h
319 26-12-2013 08:30:00 5.8 C 6.95 g/m*3 5.8 C 0 km/h
320 26-12-2013 08:35:00 5.8 C 6.95 g/m*3 5.8 C 0 km/h
321 26-12-2013 08:40:00 5.8 C 6.95 g/m*3 5.8 C 0 km/h
322 26-12-2013 08:45:00 5.9 C 6.99 g/m*3 5.9 C 0 km/h
323 26-12-2013 08:50:00 5.9 C 6.99 g/m*3 5.9 C 0 km/h
324 26-12-2013 08:55:00 5.9 C 6.99 g/m*3 5.9 C 0 km/h
325 26-12-2013 09:00:00 5.9 C 6.99 g/m*3 5.9 C 0 km/h
Sensor: Nr:Datum:Temp:Abs-Feuchte:Windchill:Wind:
Aussen-T/F 326 26-12-2013 09:05:00 5.9 C 6.99 g/m*3 5.9 C 0 km/h
327 26-12-2013 09:30:00 5.9 C 6.99 g/m*3 5.9 C 0 km/h
328 26-12-2013 09:35:00 5.9 C 6.99 g/m*3 5.9 C 0 km/h
329 26-12-2013 09:40:00 6 C 7.04 g/m*3 6 C 0 km/h
330 26-12-2013 09:45:00 6 C 7.04 g/m*3 6 C 0 km/h
331 26-12-2013 09:50:00 6.1 C 7.09 g/m*3 6.1 C 0 km/h
332 26-12-2013 09:55:00 6.1 C 7.09 g/m*3 6.1 C 0 km/h
333 26-12-2013 10:00:00 6.1 C 7.09 g/m*3 6.1 C 0 km/h
334 26-12-2013 10:05:00 6.1 C 7.09 g/m*3 6.1 C 0 km/h
335 26-12-2013 10:10:00 6.1 C 7.09 g/m*3 6.1 C 0 km/h
336 26-12-2013 10:15:00 6.1 C 7.09 g/m*3 6.1 C 0 km/h
337 26-12-2013 10:20:00 6.1 C 7.09 g/m*3 6.1 C 0 km/h
338 26-12-2013 10:25:00 6.1 C 7.09 g/m*3 6.1 C 0 km/h
339 26-12-2013 10:30:00 6.2 C 7.13 g/m*3 6.2 C 0 km/h
340 26-12-2013 10:35:00 6.2 C 7.13 g/m*3 6.2 C 0 km/h
341 26-12-2013 10:40:00 6.2 C 7.13 g/m*3 6.2 C 0 km/h
342 26-12-2013 10:45:00 6.2 C 7.13 g/m*3 6.2 C 0 km/h
343 26-12-2013 10:50:00 6.2 C 7.13 g/m*3 6.2 C 0 km/h
344 26-12-2013 10:55:00 6.3 C 7.18 g/m*3 6.3 C 0 km/h
345 26-12-2013 11:00:00 6.3 C 7.18 g/m*3 6.3 C 0 km/h
346 26-12-2013 11:05:00 6.3 C 7.18 g/m*3 6.3 C 0 km/h
347 26-12-2013 11:10:00 6.3 C 7.18 g/m*3 6.3 C 0 km/h
348 26-12-2013 11:15:00 6.3 C 7.18 g/m*3 6.3 C 0 km/h
349 26-12-2013 11:20:00 6.4 C 7.23 g/m*3 6.4 C 3.2 km/h
350 26-12-2013 11:25:00 6.4 C 7.23 g/m*3 6.4 C 4.8 km/h
Sensor: Nr:Datum:Temp:Abs-Feuchte:Windchill:Wind:
Aussen-T/F 351 26-12-2013 11:30:00 6.4 C 7.23 g/m*3 6.4 C 4.8 km/h
352 26-12-2013 11:35:00 6.4 C 7.23 g/m*3 6.4 C 4.8 km/h
353 26-12-2013 11:40:00 6.4 C 7.23 g/m*3 6.4 C 4.8 km/h
354 26-12-2013 11:45:00 6.5 C 7.2 g/m*3 5.33 C 6.4 km/h
355 26-12-2013 11:50:00 6.5 C 7.2 g/m*3 5.33 C 6.4 km/h
356 26-12-2013 11:55:00 6.5 C 7.2 g/m*3 6.5 C 4.8 km/h
357 26-12-2013 12:00:00 6.5 C 7.2 g/m*3 5.33 C 6.4 km/h
358 26-12-2013 12:05:00 6.5 C 7.2 g/m*3 6.5 C 4.8 km/h
359 26-12-2013 13:25:00 7.3 C 7.27 g/m*3 7.3 C 0 km/h
360 26-12-2013 13:30:00 7.4 C 7.32 g/m*3 7.4 C 3.2 km/h
361 26-12-2013 13:35:00 7.4 C 7.32 g/m*3 7.4 C 0 km/h
362 26-12-2013 13:40:00 7.4 C 7.32 g/m*3 7.4 C 0 km/h
363 26-12-2013 13:45:00 7.4 C 7.32 g/m*3 7.4 C 0 km/h
364 26-12-2013 13:50:00 7.5 C 7.36 g/m*3 7.5 C 0 km/h
365 26-12-2013 13:55:00 7.6 C 7.41 g/m*3 7.6 C 1.6 km/h
366 26-12-2013 14:00:00 7.6 C 7.41 g/m*3 7.6 C 1.6 km/h
367 26-12-2013 14:05:00 7.6 C 7.33 g/m*3 7.6 C 1.6 km/h
368 26-12-2013 14:10:00 7.6 C 7.25 g/m*3 7.6 C 3.2 km/h
369 26-12-2013 14:15:00 7.6 C 7.25 g/m*3 7.6 C 0 km/h
370 26-12-2013 14:20:00 7.7 C 7.38 g/m*3 7.7 C 0 km/h
371 26-12-2013 14:25:00 7.7 C 7.38 g/m*3 7.7 C 0 km/h
372 26-12-2013 14:30:00 7.6 C 7.33 g/m*3 7.6 C 0 km/h
373 26-12-2013 14:35:00 7.6 C 7.33 g/m*3 7.6 C 0 km/h
374 26-12-2013 14:40:00 7.7 C 7.46 g/m*3 7.7 C 0 km/h
375 26-12-2013 14:45:00 7.7 C 7.38 g/m*3 7.7 C 0 km/h
Sensor: Nr:Datum:Temp:Abs-Feuchte:Windchill:Wind:
Aussen-T/F 376 26-12-2013 14:50:00 7.7 C 7.46 g/m*3 7.7 C 0 km/h
377 26-12-2013 14:55:00 7.7 C 7.46 g/m*3 7.7 C 0 km/h
378 26-12-2013 15:00:00 7.7 C 7.38 g/m*3 7.7 C 1.6 km/h
379 26-12-2013 15:05:00 7.7 C 7.38 g/m*3 7.7 C 0 km/h
380 26-12-2013 15:10:00 7.7 C 7.38 g/m*3 7.7 C 0 km/h
381 26-12-2013 15:15:00 7.7 C 7.38 g/m*3 7.7 C 0 km/h
382 26-12-2013 15:20:00 7.7 C 7.38 g/m*3 7.7 C 0 km/h
383 26-12-2013 15:25:00 7.7 C 7.38 g/m*3 7.7 C 0 km/h
384 26-12-2013 15:30:00 7.7 C 7.3 g/m*3 7.7 C 0 km/h
385 26-12-2013 15:35:00 7.7 C 7.38 g/m*3 7.7 C 0 km/h
386 26-12-2013 15:40:00 7.6 C 7.33 g/m*3 7.6 C 0 km/h
387 26-12-2013 15:45:00 7.6 C 7.33 g/m*3 7.6 C 0 km/h
388 26-12-2013 16:05:00 7.4 C 7.4 g/m*3 7.4 C 0 km/h
389 26-12-2013 16:10:00 7.4 C 7.48 g/m*3 7.4 C 0 km/h
390 26-12-2013 16:15:00 7.4 C 7.48 g/m*3 7.4 C 0 km/h
391 26-12-2013 16:20:00 7.3 C 7.43 g/m*3 7.3 C 0 km/h
392 26-12-2013 16:25:00 7.3 C 7.43 g/m*3 7.3 C 0 km/h
393 26-12-2013 16:30:00 7.2 C 7.38 g/m*3 7.2 C 0 km/h
394 26-12-2013 16:35:00 7.2 C 7.38 g/m*3 7.2 C 0 km/h
395 26-12-2013 16:40:00 7.1 C 7.33 g/m*3 7.1 C 0 km/h
396 26-12-2013 16:45:00 7.1 C 7.33 g/m*3 7.1 C 0 km/h
397 26-12-2013 16:50:00 7 C 7.28 g/m*3 7 C 0 km/h
398 26-12-2013 16:55:00 7 C 7.28 g/m*3 7 C 0 km/h
399 26-12-2013 17:00:00 7 C 7.28 g/m*3 7 C 0 km/h
400 26-12-2013 17:05:00 7 C 7.28 g/m*3 7 C 0 km/h
Sensor: Nr:Datum:Temp:Abs-Feuchte:Windchill:Wind:
Aussen-T/F 401 26-12-2013 17:10:00 7 C 7.28 g/m*3 7 C 3.2 km/h
402 26-12-2013 17:15:00 7 C 7.28 g/m*3 7 C 3.2 km/h
403 26-12-2013 17:20:00 7.1 C 7.25 g/m*3 7.1 C 3.2 km/h
404 26-12-2013 17:25:00 7.1 C 7.25 g/m*3 7.1 C 1.6 km/h
405 26-12-2013 17:30:00 7.2 C 7.3 g/m*3 7.2 C 4.8 km/h
406 26-12-2013 17:35:00 7.2 C 7.3 g/m*3 7.2 C 0 km/h
407 26-12-2013 17:40:00 7.1 C 7.33 g/m*3 7.1 C 0 km/h
408 26-12-2013 17:45:00 7.1 C 7.33 g/m*3 7.1 C 0 km/h
409 26-12-2013 17:50:00 7 C 7.28 g/m*3 7 C 1.6 km/h
410 26-12-2013 17:55:00 6.9 C 7.31 g/m*3 6.9 C 1.6 km/h
411 26-12-2013 18:00:00 6.9 C 7.31 g/m*3 6.9 C 0 km/h
412 26-12-2013 18:05:00 6.8 C 7.27 g/m*3 6.8 C 0 km/h
413 26-12-2013 18:10:00 6.8 C 7.27 g/m*3 6.8 C 1.6 km/h
414 26-12-2013 18:15:00 6.7 C 7.22 g/m*3 6.7 C 3.2 km/h
415 26-12-2013 18:20:00 6.7 C 7.22 g/m*3 6.7 C 1.6 km/h
416 26-12-2013 18:25:00 6.7 C 7.22 g/m*3 6.7 C 3.2 km/h
417 26-12-2013 18:30:00 6.6 C 7.17 g/m*3 6.6 C 1.6 km/h
418 26-12-2013 18:35:00 6.6 C 7.17 g/m*3 6.6 C 3.2 km/h
419 26-12-2013 18:40:00 6.6 C 7.17 g/m*3 6.6 C 4.8 km/h
420 26-12-2013 18:45:00 6.5 C 7.12 g/m*3 6.5 C 3.2 km/h
421 26-12-2013 18:50:00 6.5 C 7.12 g/m*3 6.5 C 3.2 km/h
422 26-12-2013 18:55:00 6.4 C 7.08 g/m*3 6.4 C 4.8 km/h
423 26-12-2013 19:00:00 6.3 C 7.03 g/m*3 6.3 C 3.2 km/h
424 26-12-2013 19:05:00 6.3 C 7.03 g/m*3 6.3 C 1.6 km/h
425 26-12-2013 19:10:00 6.2 C 6.99 g/m*3 6.2 C 3.2 km/h
Sensor: Nr:Datum:Temp:Abs-Feuchte:Windchill:Wind:
Aussen-T/F 426 26-12-2013 19:15:00 6.2 C 6.99 g/m*3 6.2 C 3.2 km/h
427 26-12-2013 19:20:00 6.1 C 6.94 g/m*3 6.1 C 3.2 km/h
428 26-12-2013 19:25:00 6.1 C 6.94 g/m*3 6.1 C 3.2 km/h
429 26-12-2013 19:30:00 6.1 C 7.01 g/m*3 6.1 C 3.2 km/h
430 26-12-2013 19:35:00 6.1 C 7.01 g/m*3 6.1 C 3.2 km/h
431 26-12-2013 19:40:00 6 C 6.97 g/m*3 6 C 3.2 km/h
432 26-12-2013 19:45:00 6 C 6.97 g/m*3 6 C 3.2 km/h
433 26-12-2013 19:50:00 6 C 6.97 g/m*3 6 C 1.6 km/h
434 26-12-2013 19:55:00 6 C 6.97 g/m*3 6 C 3.2 km/h
435 26-12-2013 20:00:00 5.9 C 6.92 g/m*3 5.9 C 1.6 km/h
436 26-12-2013 20:05:00 5.9 C 6.92 g/m*3 5.9 C 3.2 km/h
437 26-12-2013 20:10:00 5.9 C 6.92 g/m*3 5.9 C 3.2 km/h
438 26-12-2013 20:15:00 5.9 C 6.92 g/m*3 5.9 C 3.2 km/h
439 26-12-2013 20:20:00 5.9 C 6.92 g/m*3 5.9 C 1.6 km/h
440 26-12-2013 20:25:00 5.9 C 6.92 g/m*3 5.9 C 1.6 km/h
441 26-12-2013 20:30:00 5.8 C 6.88 g/m*3 5.8 C 1.6 km/h
442 26-12-2013 20:35:00 5.7 C 6.83 g/m*3 5.7 C 3.2 km/h
443 26-12-2013 20:40:00 5.6 C 6.79 g/m*3 5.6 C 3.2 km/h
444 26-12-2013 20:45:00 5.4 C 6.7 g/m*3 5.4 C 3.2 km/h
445 26-12-2013 20:50:00 5.4 C 6.7 g/m*3 5.4 C 3.2 km/h
446 26-12-2013 20:55:00 5.3 C 6.65 g/m*3 5.3 C 3.2 km/h
447 26-12-2013 21:00:00 5.2 C 6.54 g/m*3 5.2 C 3.2 km/h
448 26-12-2013 21:05:00 5 C 6.46 g/m*3 5 C 3.2 km/h
449 26-12-2013 21:10:00 5.1 C 6.5 g/m*3 3.23 C 8.1 km/h
450 26-12-2013 21:15:00 5.2 C 6.47 g/m*3 5.2 C 3.2 km/h
Sensor: Nr:Datum:Temp:Abs-Feuchte:Windchill:Wind:
Aussen-T/F 451 26-12-2013 21:20:00 5.1 C 6.43 g/m*3 5.1 C 3.2 km/h
452 26-12-2013 21:25:00 4.9 C 6.35 g/m*3 4.9 C 4.8 km/h
453 26-12-2013 21:30:00 4.8 C 6.3 g/m*3 4.8 C 3.2 km/h
454 26-12-2013 21:35:00 4.6 C 6.29 g/m*3 4.6 C 4.8 km/h
455 26-12-2013 21:40:00 4.5 C 6.24 g/m*3 4.5 C 4.8 km/h
456 26-12-2013 21:45:00 4.5 C 6.24 g/m*3 4.5 C 4.8 km/h
457 26-12-2013 21:50:00 4.5 C 6.24 g/m*3 4.5 C 4.8 km/h
458 26-12-2013 21:55:00 4.6 C 6.29 g/m*3 4.6 C 4.8 km/h
459 26-12-2013 22:00:00 4.7 C 6.33 g/m*3 4.7 C 4.8 km/h
460 26-12-2013 22:05:00 4.8 C 6.37 g/m*3 4.8 C 3.2 km/h
461 26-12-2013 22:10:00 5.1 C 6.43 g/m*3 5.1 C 4.8 km/h
462 26-12-2013 22:15:00 5.2 C 6.47 g/m*3 5.2 C 4.8 km/h
463 26-12-2013 22:20:00 5.1 C 6.36 g/m*3 5.1 C 1.6 km/h
464 26-12-2013 22:25:00 5 C 6.32 g/m*3 5 C 3.2 km/h
465 26-12-2013 22:30:00 4.9 C 6.35 g/m*3 4.9 C 4.8 km/h
466 26-12-2013 22:35:00 5.1 C 6.43 g/m*3 5.1 C 4.8 km/h
467 26-12-2013 22:40:00 5.2 C 6.4 g/m*3 3.34 C 8.1 km/h
468 26-12-2013 22:45:00 5.6 C 6.5 g/m*3 3.44 C 9.7 km/h
469 26-12-2013 22:50:00 5.7 C 6.48 g/m*3 4.4 C 6.4 km/h
470 26-12-2013 22:55:00 5.8 C 6.52 g/m*3 3.68 C 9.7 km/h
471 26-12-2013 23:00:00 5.8 C 6.45 g/m*3 4.52 C 6.4 km/h
472 26-12-2013 23:05:00 5.9 C 6.42 g/m*3 3.48 C 11.3 km/h
473 26-12-2013 23:10:00 6 C 6.39 g/m*3 3.92 C 9.7 km/h
474 26-12-2013 23:15:00 5.9 C 6.35 g/m*3 3.48 C 11.3 km/h
475 26-12-2013 23:20:00 5.9 C 6.27 g/m*3 3.8 C 9.7 km/h
Sensor: Nr:Datum:Temp:Abs-Feuchte:Windchill:Wind:
Aussen-T/F 476 26-12-2013 23:25:00 5.7 C 6.26 g/m*3 4.4 C 6.4 km/h
477 26-12-2013 23:30:00 5.5 C 6.25 g/m*3 5.5 C 4.8 km/h
478 26-12-2013 23:35:00 5.3 C 6.24 g/m*3 3.94 C 6.4 km/h
479 26-12-2013 23:40:00 5.3 C 6.24 g/m*3 5.3 C 4.8 km/h
480 26-12-2013 23:45:00 5.2 C 6.2 g/m*3 3.82 C 6.4 km/h
481 26-12-2013 23:50:00 5.1 C 6.16 g/m*3 5.1 C 4.8 km/h
482 26-12-2013 23:55:00 5.1 C 6.16 g/m*3 3.71 C 6.4 km/h
483 27-12-2013 00:00:00 5.1 C 6.16 g/m*3 5.1 C 4.8 km/h
484 27-12-2013 00:05:00 4.8 C 6.1 g/m*3 2.87 C 8.1 km/h
485 27-12-2013 00:10:00 5.1 C 6.16 g/m*3 2.22 C 12.9 km/h
486 27-12-2013 00:15:00 4.9 C 6.08 g/m*3 4.9 C 3.2 km/h
487 27-12-2013 00:20:00 4.8 C 6.1 g/m*3 4.8 C 4.8 km/h
488 27-12-2013 00:25:00 4.7 C 6 g/m*3 4.7 C 4.8 km/h
489 27-12-2013 00:30:00 4.6 C 6.02 g/m*3 2.25 C 9.7 km/h
490 27-12-2013 00:35:00 4.7 C 6 g/m*3 4.7 C 3.2 km/h
491 27-12-2013 00:40:00 4.6 C 6.02 g/m*3 3.13 C 6.4 km/h
492 27-12-2013 00:45:00 4.4 C 5.94 g/m*3 4.4 C 4.8 km/h
493 27-12-2013 00:50:00 4.5 C 5.98 g/m*3 3.02 C 6.4 km/h
494 27-12-2013 00:55:00 4.6 C 6.02 g/m*3 3.13 C 6.4 km/h
495 27-12-2013 01:00:00 4.6 C 6.02 g/m*3 4.6 C 4.8 km/h
496 27-12-2013 01:05:00 4.9 C 6.01 g/m*3 2.61 C 9.7 km/h
497 27-12-2013 01:10:00 5.2 C 6.06 g/m*3 2.96 C 9.7 km/h
498 27-12-2013 01:15:00 5.1 C 6.02 g/m*3 3.71 C 6.4 km/h
499 27-12-2013 01:20:00 5.1 C 6.02 g/m*3 2.51 C 11.3 km/h
500 27-12-2013 01:25:00 5.2 C 6.06 g/m*3 3.82 C 6.4 km/h
Sensor: Nr:Datum:Temp:Abs-Feuchte:Windchill:Wind:
Aussen-T/F 501 27-12-2013 01:30:00 5.1 C 6.02 g/m*3 3.71 C 6.4 km/h
502 27-12-2013 01:35:00 5.1 C 6.02 g/m*3 5.1 C 4.8 km/h
503 27-12-2013 01:40:00 4.9 C 5.94 g/m*3 4.9 C 4.8 km/h
504 27-12-2013 01:45:00 4.8 C 5.97 g/m*3 2.87 C 8.1 km/h
505 27-12-2013 01:50:00 4.9 C 5.94 g/m*3 3.48 C 6.4 km/h
506 27-12-2013 01:55:00 4.8 C 5.97 g/m*3 3.36 C 6.4 km/h
507 27-12-2013 02:00:00 4.7 C 5.93 g/m*3 4.7 C 3.2 km/h
508 27-12-2013 02:05:00 4.4 C 5.88 g/m*3 4.4 C 4.8 km/h
509 27-12-2013 02:10:00 4.1 C 5.82 g/m*3 4.1 C 3.2 km/h
510 27-12-2013 02:15:00 3.8 C 5.77 g/m*3 3.8 C 3.2 km/h
511 27-12-2013 02:20:00 3.7 C 5.73 g/m*3 3.7 C 4.8 km/h
512 27-12-2013 02:25:00 3.4 C 5.68 g/m*3 3.4 C 3.2 km/h
513 27-12-2013 02:30:00 3.3 C 5.64 g/m*3 3.3 C 3.2 km/h
514 27-12-2013 02:35:00 3.2 C 5.6 g/m*3 3.2 C 3.2 km/h
515 27-12-2013 02:40:00 3.1 C 5.63 g/m*3 3.1 C 3.2 km/h
516 27-12-2013 02:45:00 2.9 C 5.55 g/m*3 2.9 C 3.2 km/h
517 27-12-2013 02:50:00 2.9 C 5.55 g/m*3 2.9 C 3.2 km/h
518 27-12-2013 02:55:00 2.8 C 5.51 g/m*3 2.8 C 3.2 km/h
519 27-12-2013 03:00:00 2.8 C 5.51 g/m*3 2.8 C 1.6 km/h
520 27-12-2013 03:05:00 2.7 C 5.54 g/m*3 2.7 C 3.2 km/h
521 27-12-2013 03:10:00 2.6 C 5.5 g/m*3 2.6 C 1.6 km/h
522 27-12-2013 03:15:00 2.5 C 5.46 g/m*3 2.5 C 3.2 km/h
523 27-12-2013 03:20:00 2.5 C 5.46 g/m*3 2.5 C 3.2 km/h
524 27-12-2013 03:25:00 2.5 C 5.46 g/m*3 2.5 C 0 km/h
525 27-12-2013 03:30:00 2.5 C 5.46 g/m*3 2.5 C 1.6 km/h
Sensor: Nr:Datum:Temp:Abs-Feuchte:Windchill:Wind:
Aussen-T/F 526 27-12-2013 03:35:00 2.4 C 5.42 g/m*3 2.4 C 3.2 km/h
527 27-12-2013 03:40:00 2.4 C 5.42 g/m*3 2.4 C 3.2 km/h
528 27-12-2013 03:45:00 2.4 C 5.42 g/m*3 2.4 C 3.2 km/h
529 27-12-2013 03:50:00 2.4 C 5.42 g/m*3 2.4 C 3.2 km/h
530 27-12-2013 03:55:00 2.4 C 5.48 g/m*3 2.4 C 3.2 km/h
531 27-12-2013 04:00:00 2.4 C 5.48 g/m*3 2.4 C 4.8 km/h
532 27-12-2013 04:05:00 2.5 C 5.52 g/m*3 2.5 C 3.2 km/h
533 27-12-2013 04:10:00 2.6 C 5.56 g/m*3 2.6 C 3.2 km/h
534 27-12-2013 04:15:00 2.8 C 5.63 g/m*3 2.8 C 1.6 km/h
535 27-12-2013 04:20:00 3.1 C 5.75 g/m*3 3.1 C 3.2 km/h
536 27-12-2013 04:25:00 3.3 C 5.82 g/m*3 3.3 C 3.2 km/h
537 27-12-2013 04:30:00 3.7 C 5.98 g/m*3 2.09 C 6.4 km/h
538 27-12-2013 04:35:00 4.1 C 6.08 g/m*3 4.1 C 4.8 km/h
539 27-12-2013 04:40:00 4.3 C 6.1 g/m*3 4.3 C 3.2 km/h
540 27-12-2013 04:45:00 4.4 C 6.07 g/m*3 4.4 C 3.2 km/h
541 27-12-2013 04:50:00 4.6 C 6.09 g/m*3 4.6 C 3.2 km/h
542 27-12-2013 04:55:00 4.6 C 6.02 g/m*3 4.6 C 4.8 km/h
543 27-12-2013 05:00:00 4.8 C 6.1 g/m*3 4.8 C 3.2 km/h
544 27-12-2013 05:05:00 4.8 C 6.04 g/m*3 4.8 C 3.2 km/h
545 27-12-2013 05:10:00 4.8 C 6.04 g/m*3 3.36 C 6.4 km/h
546 27-12-2013 05:15:00 4.8 C 6.04 g/m*3 4.8 C 4.8 km/h
547 27-12-2013 05:20:00 4.8 C 5.97 g/m*3 4.8 C 3.2 km/h
548 27-12-2013 05:25:00 5 C 6.05 g/m*3 2.72 C 9.7 km/h
549 27-12-2013 05:30:00 5.2 C 6.06 g/m*3 5.2 C 3.2 km/h
550 27-12-2013 05:35:00 5.2 C 6.06 g/m*3 5.2 C 4.8 km/h
Sensor: Nr:Datum:Temp:Abs-Feuchte:Windchill:Wind:
Aussen-T/F 551 27-12-2013 05:40:00 5.3 C 5.96 g/m*3 2.75 C 11.3 km/h
552 27-12-2013 05:45:00 5.4 C 6.07 g/m*3 5.4 C 3.2 km/h
553 27-12-2013 05:50:00 5.4 C 5.93 g/m*3 3.2 C 9.7 km/h
554 27-12-2013 05:55:00 5.4 C 5.93 g/m*3 5.4 C 4.8 km/h
555 27-12-2013 06:00:00 5.3 C 5.89 g/m*3 3.46 C 8.1 km/h
556 27-12-2013 06:05:00 5.2 C 5.85 g/m*3 5.2 C 4.8 km/h
557 27-12-2013 06:10:00 5.3 C 5.89 g/m*3 3.94 C 6.4 km/h
558 27-12-2013 06:15:00 5.2 C 5.85 g/m*3 3.82 C 6.4 km/h
559 27-12-2013 06:20:00 5.1 C 5.81 g/m*3 5.1 C 4.8 km/h
560 27-12-2013 06:25:00 4.9 C 5.81 g/m*3 4.9 C 4.8 km/h
561 27-12-2013 06:30:00 4.9 C 5.87 g/m*3 4.9 C 3.2 km/h
562 27-12-2013 06:35:00 4.9 C 5.87 g/m*3 4.9 C 3.2 km/h
563 27-12-2013 06:40:00 4.9 C 5.94 g/m*3 4.9 C 0 km/h
564 27-12-2013 06:45:00 4.7 C 5.93 g/m*3 4.7 C 1.6 km/h
565 27-12-2013 06:50:00 4.6 C 5.89 g/m*3 4.6 C 1.6 km/h
566 27-12-2013 06:55:00 4.5 C 5.85 g/m*3 4.5 C 1.6 km/h
567 27-12-2013 07:00:00 4.4 C 5.88 g/m*3 4.4 C 1.6 km/h
568 27-12-2013 07:05:00 4.3 C 5.84 g/m*3 4.3 C 3.2 km/h
569 27-12-2013 07:10:00 4.3 C 5.84 g/m*3 4.3 C 1.6 km/h
570 27-12-2013 07:15:00 4.3 C 5.84 g/m*3 4.3 C 0 km/h
571 27-12-2013 07:20:00 4.4 C 5.88 g/m*3 4.4 C 4.8 km/h
572 27-12-2013 07:25:00 4.4 C 5.88 g/m*3 4.4 C 3.2 km/h
573 27-12-2013 07:30:00 4.3 C 5.84 g/m*3 4.3 C 1.6 km/h
574 27-12-2013 07:35:00 4.3 C 5.84 g/m*3 4.3 C 0 km/h
575 27-12-2013 07:40:00 4.2 C 5.86 g/m*3 4.2 C 1.6 km/h
Sensor: Nr:Datum:Temp:Abs-Feuchte:Windchill:Wind:
Aussen-T/F 576 27-12-2013 07:45:00 4.1 C 5.82 g/m*3 4.1 C 3.2 km/h
577 27-12-2013 07:50:00 4.1 C 5.76 g/m*3 4.1 C 1.6 km/h
578 27-12-2013 07:55:00 4 C 5.79 g/m*3 4 C 3.2 km/h
579 27-12-2013 08:00:00 3.9 C 5.75 g/m*3 3.9 C 1.6 km/h
580 27-12-2013 08:05:00 3.8 C 5.77 g/m*3 3.8 C 3.2 km/h
581 27-12-2013 08:10:00 3.8 C 5.77 g/m*3 3.8 C 3.2 km/h
582 27-12-2013 08:15:00 3.8 C 5.77 g/m*3 3.8 C 1.6 km/h
583 27-12-2013 08:20:00 3.7 C 5.73 g/m*3 3.7 C 1.6 km/h
584 27-12-2013 08:25:00 3.8 C 5.77 g/m*3 2.21 C 6.4 km/h
585 27-12-2013 08:30:00 3.8 C 5.77 g/m*3 3.8 C 1.6 km/h
586 27-12-2013 08:35:00 3.8 C 5.77 g/m*3 3.8 C 3.2 km/h
587 27-12-2013 08:40:00 3.8 C 5.77 g/m*3 2.21 C 6.4 km/h
588 27-12-2013 08:45:00 4.1 C 5.82 g/m*3 4.1 C 3.2 km/h
589 27-12-2013 08:50:00 4.2 C 5.86 g/m*3 4.2 C 4.8 km/h
590 27-12-2013 08:55:00 4.4 C 5.81 g/m*3 4.4 C 4.8 km/h
591 27-12-2013 09:00:00 4.6 C 5.89 g/m*3 4.6 C 4.8 km/h
592 27-12-2013 09:05:00 4.7 C 5.93 g/m*3 4.7 C 3.2 km/h
593 27-12-2013 09:10:00 4.8 C 5.97 g/m*3 4.8 C 4.8 km/h
594 27-12-2013 09:15:00 4.8 C 5.9 g/m*3 2.49 C 9.7 km/h
595 27-12-2013 09:20:00 5.1 C 5.95 g/m*3 3.23 C 8.1 km/h
596 27-12-2013 09:25:00 5.2 C 5.92 g/m*3 5.2 C 3.2 km/h
597 27-12-2013 09:30:00 5.3 C 5.82 g/m*3 5.3 C 4.8 km/h
598 27-12-2013 09:35:00 5.4 C 6.14 g/m*3 5.4 C 4.8 km/h
599 27-12-2013 09:40:00 5.4 C 6 g/m*3 5.4 C 3.2 km/h
600 27-12-2013 09:45:00 5.5 C 6.04 g/m*3 5.5 C 0 km/h
Sensor: Nr:Datum:Temp:Abs-Feuchte:Windchill:Wind:
Aussen-T/F 601 27-12-2013 09:50:00 5.6 C 6.01 g/m*3 4.29 C 6.4 km/h
602 27-12-2013 09:55:00 5.7 C 5.84 g/m*3 3.23 C 11.3 km/h
603 27-12-2013 10:00:00 5.9 C 5.84 g/m*3 4.17 C 8.1 km/h
604 27-12-2013 10:05:00 6.2 C 5.81 g/m*3 4.52 C 8.1 km/h
605 27-12-2013 10:10:00 6.3 C 5.85 g/m*3 6.3 C 4.8 km/h
606 27-12-2013 10:15:00 6.4 C 5.81 g/m*3 6.4 C 4.8 km/h
607 27-12-2013 10:20:00 6.5 C 5.77 g/m*3 3.92 C 12.9 km/h
608 27-12-2013 10:25:00 6.6 C 5.89 g/m*3 5.44 C 6.4 km/h
609 27-12-2013 10:30:00 6.7 C 5.85 g/m*3 5.11 C 8.1 km/h
610 27-12-2013 10:35:00 6.7 C 5.85 g/m*3 4.75 C 9.7 km/h
611 27-12-2013 10:40:00 6.8 C 5.74 g/m*3 3.61 C 17.7 km/h
612 27-12-2013 10:45:00 6.8 C 5.81 g/m*3 3.61 C 17.7 km/h
613 27-12-2013 10:50:00 6.9 C 5.77 g/m*3 3.54 C 19.3 km/h
614 27-12-2013 10:55:00 6.9 C 5.77 g/m*3 3.54 C 19.3 km/h
615 27-12-2013 11:00:00 7 C 5.81 g/m*3 5.9 C 6.4 km/h
616 27-12-2013 11:05:00 7 C 5.89 g/m*3 4.8 C 11.3 km/h
617 27-12-2013 11:10:00 7 C 5.81 g/m*3 5.9 C 6.4 km/h
618 27-12-2013 11:15:00 7 C 5.81 g/m*3 5.46 C 8.1 km/h
619 27-12-2013 11:20:00 7.1 C 5.77 g/m*3 6.02 C 6.4 km/h
620 27-12-2013 11:25:00 7.1 C 5.85 g/m*3 5.58 C 8.1 km/h
621 27-12-2013 11:30:00 7.1 C 5.85 g/m*3 6.02 C 6.4 km/h
622 27-12-2013 11:35:00 7.1 C 5.85 g/m*3 7.1 C 4.8 km/h
623 27-12-2013 11:40:00 7.2 C 5.89 g/m*3 6.13 C 6.4 km/h
624 27-12-2013 11:45:00 7.2 C 5.89 g/m*3 5.35 C 9.7 km/h
625 27-12-2013 11:50:00 7.3 C 5.85 g/m*3 4.9 C 12.9 km/h
Sensor: Nr:Datum:Temp:Abs-Feuchte:Windchill:Wind:
Aussen-T/F 626 27-12-2013 11:55:00 7.4 C 5.88 g/m*3 5.28 C 11.3 km/h
627 27-12-2013 12:00:00 7.4 C 5.88 g/m*3 5.58 C 9.7 km/h
628 27-12-2013 12:05:00 7.4 C 5.88 g/m*3 5.93 C 8.1 km/h
629 27-12-2013 12:10:00 7.4 C 5.88 g/m*3 5.02 C 12.9 km/h
630 27-12-2013 12:30:00 7.8 C 5.96 g/m*3 5.51 C 12.9 km/h
631 27-12-2013 12:35:00 7.8 C 6.04 g/m*3 6.4 C 8.1 km/h
632 27-12-2013 12:40:00 7.9 C 6.08 g/m*3 7.9 C 4.8 km/h
633 27-12-2013 12:45:00 7.9 C 6.08 g/m*3 6.52 C 8.1 km/h
634 27-12-2013 12:50:00 7.9 C 6.08 g/m*3 5.63 C 12.9 km/h
635 27-12-2013 12:55:00 7.9 C 6.08 g/m*3 6.18 C 9.7 km/h
636 27-12-2013 13:00:00 7.9 C 6 g/m*3 5.18 C 16.1 km/h
637 27-12-2013 13:05:00 7.9 C 6.08 g/m*3 5.89 C 11.3 km/h
638 27-12-2013 13:10:00 7.9 C 6.08 g/m*3 6.18 C 9.7 km/h
639 27-12-2013 13:15:00 7.9 C 6.08 g/m*3 6.18 C 9.7 km/h
640 27-12-2013 13:20:00 8.2 C 6.2 g/m*3 5.99 C 12.9 km/h
641 27-12-2013 13:25:00 8.3 C 6.15 g/m*3 6.66 C 9.7 km/h
642 27-12-2013 13:30:00 8.4 C 6.19 g/m*3 5.61 C 17.7 km/h
643 27-12-2013 13:35:00 8.6 C 6.44 g/m*3 5.86 C 17.7 km/h
644 27-12-2013 13:40:00 8.7 C 6.49 g/m*3 7.87 C 6.4 km/h
645 27-12-2013 13:45:00 8.8 C 6.53 g/m*3 7.98 C 6.4 km/h
646 27-12-2013 13:50:00 8.8 C 6.53 g/m*3 7.98 C 6.4 km/h
647 27-12-2013 13:55:00 8.8 C 6.44 g/m*3 6.97 C 11.3 km/h
648 27-12-2013 14:00:00 8.8 C 6.44 g/m*3 6.97 C 11.3 km/h
649 27-12-2013 14:05:00 8.8 C 6.44 g/m*3 8.8 C 4.8 km/h
650 27-12-2013 16:05:00 9.3 C 6.74 g/m*3 8.16 C 8.1 km/h
Sensor: Nr:Datum:Temp:Abs-Feuchte:Windchill:Wind:
Aussen-T/F 651 27-12-2013 16:10:00 9.3 C 6.74 g/m*3 8.16 C 8.1 km/h
652 27-12-2013 16:15:00 9.3 C 6.74 g/m*3 9.3 C 4.8 km/h
653 27-12-2013 16:20:00 9.3 C 6.83 g/m*3 7.58 C 11.3 km/h
654 27-12-2013 16:25:00 9.1 C 6.65 g/m*3 7.33 C 11.3 km/h
655 27-12-2013 16:30:00 9.1 C 6.65 g/m*3 8.33 C 6.4 km/h
656 27-12-2013 16:35:00 9.1 C 6.65 g/m*3 7.93 C 8.1 km/h
657 27-12-2013 16:40:00 9.1 C 6.65 g/m*3 8.33 C 6.4 km/h
658 27-12-2013 17:20:00 8.9 C 6.92 g/m*3 8.9 C 4.8 km/h
659 27-12-2013 17:25:00 8.9 C 6.92 g/m*3 8.1 C 6.4 km/h
660 27-12-2013 17:30:00 8.9 C 7.01 g/m*3 8.1 C 6.4 km/h
661 27-12-2013 17:35:00 8.9 C 7.01 g/m*3 8.9 C 4.8 km/h
662 27-12-2013 17:40:00 8.8 C 6.96 g/m*3 8.8 C 1.6 km/h
663 27-12-2013 17:45:00 8.8 C 6.96 g/m*3 7.58 C 8.1 km/h
664 27-12-2013 17:50:00 8.8 C 6.96 g/m*3 8.8 C 3.2 km/h
665 27-12-2013 17:55:00 8.8 C 6.96 g/m*3 8.8 C 4.8 km/h
666 27-12-2013 18:00:00 8.8 C 6.96 g/m*3 7.98 C 6.4 km/h
667 27-12-2013 18:05:00 8.9 C 7.01 g/m*3 7.69 C 8.1 km/h
668 27-12-2013 18:10:00 8.9 C 7.1 g/m*3 7.69 C 8.1 km/h
669 27-12-2013 18:15:00 8.9 C 7.1 g/m*3 6.85 C 12.9 km/h
670 27-12-2013 18:20:00 8.9 C 7.1 g/m*3 7.37 C 9.7 km/h
671 27-12-2013 18:25:00 8.9 C 7.1 g/m*3 7.37 C 9.7 km/h
672 27-12-2013 18:30:00 8.9 C 7.1 g/m*3 8.1 C 6.4 km/h
673 27-12-2013 18:35:00 8.9 C 7.1 g/m*3 8.9 C 3.2 km/h
674 27-12-2013 18:40:00 8.9 C 7.1 g/m*3 7.37 C 9.7 km/h
675 27-12-2013 18:45:00 9 C 7.23 g/m*3 9 C 3.2 km/h
Sensor: Nr:Datum:Temp:Abs-Feuchte:Windchill:Wind:
Aussen-T/F 676 27-12-2013 18:50:00 8.9 C 7.18 g/m*3 7.69 C 8.1 km/h
677 27-12-2013 18:55:00 8.9 C 7.18 g/m*3 8.9 C 4.8 km/h
678 27-12-2013 19:00:00 9.1 C 7.28 g/m*3 7.33 C 11.3 km/h
679 27-12-2013 19:05:00 9.1 C 7.19 g/m*3 9.1 C 3.2 km/h
680 27-12-2013 19:10:00 9.2 C 7.32 g/m*3 8.05 C 8.1 km/h
681 27-12-2013 19:15:00 9.2 C 7.23 g/m*3 8.05 C 8.1 km/h
682 27-12-2013 19:20:00 9.2 C 7.23 g/m*3 9.2 C 1.6 km/h
683 27-12-2013 19:25:00 9.3 C 7.19 g/m*3 8.56 C 6.4 km/h
684 27-12-2013 19:30:00 9.3 C 7.28 g/m*3 9.3 C 4.8 km/h
685 27-12-2013 19:35:00 9.3 C 7.28 g/m*3 9.3 C 4.8 km/h
686 27-12-2013 19:40:00 9.3 C 7.28 g/m*3 9.3 C 4.8 km/h
687 27-12-2013 19:45:00 9.3 C 7.37 g/m*3 9.3 C 4.8 km/h
688 27-12-2013 19:50:00 9.3 C 7.37 g/m*3 9.3 C 4.8 km/h
689 27-12-2013 19:55:00 9.4 C 7.42 g/m*3 9.4 C 4.8 km/h
690 27-12-2013 20:00:00 9.5 C 7.55 g/m*3 9.5 C 4.8 km/h
691 27-12-2013 20:05:00 9.6 C 7.6 g/m*3 9.6 C 4.8 km/h
692 27-12-2013 20:10:00 9.7 C 7.56 g/m*3 8.06 C 11.3 km/h
693 27-12-2013 20:15:00 9.8 C 7.61 g/m*3 9.8 C 4.8 km/h
694 27-12-2013 20:20:00 9.8 C 7.61 g/m*3 9.8 C 1.6 km/h
695 27-12-2013 20:25:00 9.7 C 7.56 g/m*3 9.7 C 1.6 km/h
696 27-12-2013 20:30:00 9.6 C 7.6 g/m*3 9.6 C 4.8 km/h
697 27-12-2013 20:35:00 9.5 C 7.65 g/m*3 8.79 C 6.4 km/h
698 27-12-2013 20:40:00 9.6 C 7.6 g/m*3 9.6 C 4.8 km/h
699 27-12-2013 20:45:00 9.7 C 7.74 g/m*3 8.63 C 8.1 km/h
700 27-12-2013 20:50:00 9.7 C 7.74 g/m*3 9.7 C 4.8 km/h
Sensor: Nr:Datum:Temp:Abs-Feuchte:Windchill:Wind:
Aussen-T/F 701 27-12-2013 20:55:00 9.8 C 7.79 g/m*3 9.8 C 3.2 km/h
702 27-12-2013 21:00:00 9.8 C 7.79 g/m*3 9.8 C 3.2 km/h
703 27-12-2013 21:05:00 9.8 C 7.79 g/m*3 9.8 C 3.2 km/h
704 27-12-2013 21:10:00 9.8 C 7.79 g/m*3 9.8 C 4.8 km/h
705 27-12-2013 21:15:00 9.8 C 7.79 g/m*3 8.75 C 8.1 km/h
706 27-12-2013 21:20:00 10 C 7.8 g/m*3 10 C 4.8 km/h
707 27-12-2013 21:25:00 10.1 C 7.85 g/m*3 10.1 C 1.6 km/h
708 27-12-2013 21:30:00 10.1 C 7.85 g/m*3 10.1 C 1.6 km/h
709 27-12-2013 21:35:00 10.1 C 7.94 g/m*3 10.1 C 4.8 km/h
710 27-12-2013 21:40:00 9.9 C 7.84 g/m*3 9.9 C 3.2 km/h
711 27-12-2013 21:45:00 9.9 C 7.84 g/m*3 9.9 C 3.2 km/h
712 27-12-2013 21:50:00 9.9 C 7.94 g/m*3 9.9 C 4.8 km/h
713 27-12-2013 21:55:00 9.9 C 7.94 g/m*3 8.87 C 8.1 km/h
714 27-12-2013 22:00:00 10.1 C 8.13 g/m*3 8.54 C 11.3 km/h
715 27-12-2013 22:05:00 10.2 C 8.18 g/m*3 8.66 C 11.3 km/h
716 27-12-2013 22:10:00 10.2 C 8.18 g/m*3 10.2 C 4.8 km/h
717 27-12-2013 22:15:00 10.2 C 8.28 g/m*3 10.2 C 3.2 km/h
718 27-12-2013 22:20:00 10.1 C 8.32 g/m*3 10.1 C 3.2 km/h
719 27-12-2013 22:25:00 10 C 8.27 g/m*3 8.42 C 11.3 km/h
720 27-12-2013 22:30:00 10.1 C 8.32 g/m*3 10.1 C 4.8 km/h
721 27-12-2013 22:35:00 10 C 8.27 g/m*3 8.99 C 8.1 km/h
722 27-12-2013 22:40:00 10 C 8.27 g/m*3 10 C 4.8 km/h
723 27-12-2013 22:45:00 9.9 C 8.22 g/m*3 9.25 C 6.4 km/h
724 27-12-2013 22:50:00 9.8 C 8.26 g/m*3 9.8 C 3.2 km/h
725 27-12-2013 22:55:00 9.8 C 8.26 g/m*3 8.45 C 9.7 km/h
Sensor: Nr:Datum:Temp:Abs-Feuchte:Windchill:Wind:
Aussen-T/F 726 27-12-2013 23:00:00 9.7 C 8.2 g/m*3 9.7 C 4.8 km/h
727 27-12-2013 23:05:00 9.7 C 8.3 g/m*3 9.7 C 3.2 km/h
728 27-12-2013 23:10:00 9.7 C 8.39 g/m*3 9.7 C 4.8 km/h
729 27-12-2013 23:15:00 9.7 C 8.39 g/m*3 9.7 C 3.2 km/h
730 27-12-2013 23:20:00 9.7 C 8.39 g/m*3 8.63 C 8.1 km/h
731 27-12-2013 23:25:00 9.7 C 8.48 g/m*3 9.02 C 6.4 km/h
732 27-12-2013 23:30:00 9.6 C 8.43 g/m*3 8.52 C 8.1 km/h
733 27-12-2013 23:35:00 9.6 C 8.43 g/m*3 7.7 C 12.9 km/h
734 27-12-2013 23:40:00 9.6 C 8.43 g/m*3 9.6 C 4.8 km/h
735 27-12-2013 23:45:00 9.6 C 8.43 g/m*3 8.91 C 6.4 km/h
736 27-12-2013 23:50:00 9.7 C 8.39 g/m*3 9.7 C 4.8 km/h
737 27-12-2013 23:55:00 9.8 C 8.44 g/m*3 9.8 C 4.8 km/h

Legende:
   Min
   Max


Maximal/Minimal-Werte vom 25.12.2013 - 27.12.2013

Sensor Min Max Avg
Temp
(Aussen-T/F)
2.4 °C
27-12-2013  03:35:00
11 °C
25-12-2013  00:05:00
6.96 °C
Abs-Feuchte
(Aussen-T/F)
5.42 g/m*3
27-12-2013  03:35:00
8.98 g/m*3
25-12-2013  05:00:00
7.04 g/m*3
Windchill
(Aussen-T/F)
2.09 C
27-12-2013  04:30:00
10.9 C
25-12-2013  00:25:00
6.56 C

Die Daten stammen von einer Davis Vantage Pro 2 Wetter-Station und werden unter Linux mit der Software wview2wettercgi und aufbereitet. Alle Angaben erfolgen ohne Gewähr für ihre Vollständigkeit oder Richtigkeit.
Kontakt: Rainer Krienke krienke@uni-koblenz.de . Meine Webseiten an der Uni Koblenz oder privat.
Version: $Revision: 0.78 $